< < Back
Terminal Aerodrome Forecast


Current Version              Previous Versions:   1  2  3  4  5  6  7  8  9  

Terminal Aerodrome Forecast

336
FTUS42 KTAE 220700 AAA
TAFTLH
TAF AMD
KTLH 220729Z 2207/2306 00000KT P6SM SKC
     FM221400 02007KT P6SM SKC=



Latest METAR

584
SAUS80 KWBC 230000 RRA
MTRTLH
METAR KTLH 222353Z 03003KT 10SM CLR 20/08 A3001 RMK AO2 SLP161 T02000083
10267 20200 53009 $


USA.gov is the U.S. government's official web portal to all federal, state and local government web resources and services.